Time;durP1;ratioP1;P1;durP2;ratioP2;P2;SDS_P1;SDS_P2;PMS_P1;PMS_P2;Temp;Humidity;BMP_temperature;BMP_pressure;BME280_temperature;BME280_humidity;BME280_pressure;Samples;Min_cycle;Max_cycle;Signal;HPM_P1;HPM_P2
2023/05/18 00:01:16;;;;;;;11.17;9.17;;;;;;;;;;5036207;28;20462;-76
2023/05/18 00:04:15;;;;;;;8.43;7.53;;;;;;;;;;5036639;28;20462;-76
2023/05/18 00:06:55;;;;;;;9.53;8.10;;;;;;;;;;5036979;28;20419;-76
2023/05/18 00:09:29;;;;;;;9.97;8.97;;;;;;;;;;5036088;28;20547;-75
2023/05/18 00:12:05;;;;;;;11.23;9.77;;;;;;;;;;5035146;28;20451;-76
2023/05/18 00:14:36;;;;;;;11.33;9.73;;;;;;;;;;5033913;28;20439;-76
2023/05/18 00:17:13;;;;;;;11.50;9.13;;;;;;;;;;5034237;28;20507;-76
2023/05/18 00:19:51;;;;;;;11.13;8.00;;;;;;;;;;5034506;28;20478;-76
2023/05/18 00:22:27;;;;;;;10.20;8.77;;;;;;;;;;5036411;28;20462;-75
2023/05/18 00:24:59;;;;;;;10.57;9.03;;;;;;;;;;5035904;28;20502;-75
2023/05/18 00:27:36;;;;;;;9.63;8.20;;;;;;;;;;5035375;28;20458;-75
2023/05/18 00:30:17;;;;;;;7.80;7.10;;;;;;;;;;5036265;28;20550;-75
2023/05/18 00:32:48;;;;;;;9.40;7.63;;;;;;;;;;5035445;28;20455;-77
2023/05/18 00:35:22;;;;;;;10.93;7.50;;;;;;;;;;5035600;28;20455;-76
2023/05/18 00:38:00;;;;;;;9.93;6.60;;;;;;;;;;5036704;28;20419;-76
2023/05/18 00:40:44;;;;;;;8.93;7.70;;;;;;;;;;5036373;28;20487;-76
2023/05/18 00:43:34;;;;;;;10.93;8.20;;;;;;;;;;5036702;28;20515;-77
2023/05/18 00:46:05;;;;;;;10.47;8.30;;;;;;;;;;5036697;28;20452;-76
2023/05/18 00:48:40;;;;;;;10.80;8.20;;;;;;;;;;5037248;28;20443;-75
2023/05/18 00:51:15;;;;;;;10.60;8.47;;;;;;;;;;5037235;28;21030;-75
2023/05/18 00:53:44;;;;;;;9.23;8.33;;;;;;;;;;5032860;28;20442;-75
2023/05/18 00:56:12;;;;;;;11.23;8.27;;;;;;;;;;5028776;28;20444;-74
2023/05/18 00:58:43;;;;;;;9.80;8.80;;;;;;;;;;5027680;28;20455;-74
2023/05/18 01:01:16;;;;;;;11.67;9.30;;;;;;;;;;5027760;28;20471;-75
2023/05/18 01:03:48;;;;;;;10.57;9.37;;;;;;;;;;5027534;28;20482;-75
2023/05/18 01:06:20;;;;;;;11.83;9.10;;;;;;;;;;5027631;28;20455;-76
2023/05/18 01:09:06;;;;;;;10.83;9.73;;;;;;;;;;5031822;28;20461;-74
2023/05/18 01:12:06;;;;;;;11.50;9.27;;;;;;;;;;5032460;28;20434;-75
2023/05/18 01:15:01;;;;;;;;;;;;;;;;;;;;;
2023/05/18 01:18:03;;;;;;;10.13;9.13;;;;;;;;;;5033701;28;20446;-77
2023/05/18 01:21:09;;;;;;;9.43;8.27;;;;;;;;;;5027649;28;20486;-75
2023/05/18 01:23:58;;;;;;;11.40;9.47;;;;;;;;;;5032431;28;20447;-76
2023/05/18 01:42:40;;;;;;;12.40;9.20;;;;;;;;;;4965523;29;20675;-74
2023/05/18 01:45:32;;;;;;;11.03;9.30;;;;;;;;;;4976999;28;20454;-75
2023/05/18 01:48:19;;;;;;;13.67;9.83;;;;;;;;;;4978479;29;20464;-75
2023/05/18 01:51:29;;;;;;;12.93;9.90;;;;;;;;;;5026644;28;20482;-76
2023/05/18 01:54:16;;;;;;;10.97;9.10;;;;;;;;;;4977995;28;20457;-76
2023/05/18 01:57:20;;;;;;;;;;;;;;;;;;;;;
2023/05/18 02:00:28;;;;;;;10.40;9.50;;;;;;;;;;4978668;28;20484;-80
2023/05/18 02:06:09;;;;;;;;;;;;;;;;;;;;;
2023/05/18 02:09:25;;;;;;;;;;;;;;;;;;;;;
2023/05/18 02:36:04;;;;;;;11.90;8.20;;;;;;;;;;5036204;28;20493;-74
2023/05/18 02:38:56;;;;;;;;;;;;;;;;;;;;;
2023/05/18 02:41:44;;;;;;;9.60;8.60;;;;;;;;;;5040182;28;20454;-74
2023/05/18 02:44:47;;;;;;;10.50;7.90;;;;;;;;;;5039964;28;20431;-75
2023/05/18 02:47:43;;;;;;;9.60;8.57;;;;;;;;;;5039979;28;20439;-76
2023/05/18 02:50:25;;;;;;;13.83;9.70;;;;;;;;;;5039794;28;20475;-76
2023/05/18 02:53:26;;;;;;;12.83;9.77;;;;;;;;;;5039619;28;20448;-75
2023/05/18 02:59:16;;;;;;;10.70;9.53;;;;;;;;;;4994719;28;20457;-75
2023/05/18 03:02:16;;;;;;;10.50;9.30;;;;;;;;;;5003063;28;20546;-75
2023/05/18 03:05:22;;;;;;;9.93;8.13;;;;;;;;;;5034144;28;20439;-75
2023/05/18 03:08:10;;;;;;;10.23;9.30;;;;;;;;;;5033078;28;20440;-75
2023/05/18 03:10:53;;;;;;;9.50;8.37;;;;;;;;;;5032835;28;20984;-76
2023/05/18 03:13:50;;;;;;;10.90;9.27;;;;;;;;;;5032568;28;20470;-76
2023/05/18 03:16:27;;;;;;;9.50;8.60;;;;;;;;;;5031692;28;20458;-74
2023/05/18 03:18:57;;;;;;;10.27;9.27;;;;;;;;;;5034102;28;20463;-74
2023/05/18 03:24:25;;;;;;;11.30;9.27;;;;;;;;;;4990898;28;20497;-74
2023/05/18 03:29:57;;;;;;;12.00;9.03;;;;;;;;;;5019261;28;20467;-74
2023/05/18 03:32:27;;;;;;;12.90;8.77;;;;;;;;;;5019200;28;20447;-75
2023/05/18 03:37:51;;;;;;;10.30;7.93;;;;;;;;;;4998484;28;20441;-74
2023/05/18 03:40:29;;;;;;;10.43;9.20;;;;;;;;;;5001174;28;20488;-74
2023/05/18 03:43:06;;;;;;;13.60;9.37;;;;;;;;;;5007355;28;20470;-75
2023/05/18 03:45:36;;;;;;;10.40;9.27;;;;;;;;;;5007179;28;20532;-74
2023/05/18 03:48:17;;;;;;;10.23;8.70;;;;;;;;;;5004631;28;20540;-74
2023/05/18 03:50:55;;;;;;;17.17;9.30;;;;;;;;;;5001883;28;20483;-75
2023/05/18 03:53:28;;;;;;;8.97;8.07;;;;;;;;;;4998932;28;20448;-75
2023/05/18 03:56:08;;;;;;;9.83;8.83;;;;;;;;;;4999769;28;20561;-74
2023/05/18 03:58:50;;;;;;;10.00;8.77;;;;;;;;;;4999771;28;20474;-76
2023/05/18 04:01:35;;;;;;;8.77;7.97;;;;;;;;;;5001598;28;20491;-75
2023/05/18 04:07:12;;;;;;;9.63;8.43;;;;;;;;;;4966777;28;20455;-75
2023/05/18 04:09:51;;;;;;;9.63;8.60;;;;;;;;;;5002857;28;20567;-75
2023/05/18 04:12:34;;;;;;;11.73;9.00;;;;;;;;;;5013553;28;20439;-75
2023/05/18 04:15:09;;;;;;;10.40;9.40;;;;;;;;;;5027005;28;20435;-76
2023/05/18 04:17:49;;;;;;;11.13;8.40;;;;;;;;;;5026589;28;20447;-76
2023/05/18 04:20:19;;;;;;;10.33;8.47;;;;;;;;;;5024769;28;20836;-76
2023/05/18 04:22:48;;;;;;;9.90;8.90;;;;;;;;;;5024472;28;20463;-77
2023/05/18 04:25:17;;;;;;;9.67;8.77;;;;;;;;;;5026337;28;20459;-75
2023/05/18 04:27:51;;;;;;;12.03;8.77;;;;;;;;;;5029012;28;20712;-78
2023/05/18 04:30:25;;;;;;;10.27;9.20;;;;;;;;;;5033241;28;20454;-76
2023/05/18 04:33:09;;;;;;;14.60;8.93;;;;;;;;;;5031573;28;20549;-76
2023/05/18 04:36:03;;;;;;;10.70;9.60;;;;;;;;;;5032259;28;20494;-76
2023/05/18 04:38:48;;;;;;;11.87;8.93;;;;;;;;;;5032577;28;21118;-76
2023/05/18 04:41:19;;;;;;;11.20;8.70;;;;;;;;;;5028699;28;20475;-76
2023/05/18 04:44:11;;;;;;;;;;;;;;;;;;;;;
2023/05/18 04:47:02;;;;;;;10.80;7.70;;;;;;;;;;5028694;28;20430;-75
2023/05/18 04:49:53;;;;;;;10.23;9.10;;;;;;;;;;5027452;28;20534;-74
2023/05/18 04:52:21;;;;;;;12.40;9.23;;;;;;;;;;5027311;28;20439;-75
2023/05/18 04:55:09;;;;;;;11.67;8.43;;;;;;;;;;5024404;28;20444;-74
2023/05/18 04:57:43;;;;;;;10.03;8.47;;;;;;;;;;5025310;28;20451;-74
2023/05/18 05:00:27;;;;;;;13.07;8.53;;;;;;;;;;5023330;28;20547;-75
2023/05/18 05:03:57;;;;;;;;;;;;;;;;;;;;;
2023/05/18 05:06:31;;;;;;;11.87;8.17;;;;;;;;;;5030261;28;20422;-75
2023/05/18 05:09:00;;;;;;;10.27;7.80;;;;;;;;;;5030711;28;20479;-75
2023/05/18 05:11:28;;;;;;;9.70;8.20;;;;;;;;;;5030125;28;20447;-75
2023/05/18 05:13:57;;;;;;;11.13;7.67;;;;;;;;;;5029275;28;20447;-75
2023/05/18 05:31:49;;;;;;;10.40;7.27;;;;;;;;;;4931164;28;20466;-76
2023/05/18 05:34:19;;;;;;;8.27;7.23;;;;;;;;;;5030165;28;20490;-74
2023/05/18 05:36:49;;;;;;;7.73;6.93;;;;;;;;;;5028567;28;20447;-74
2023/05/18 05:39:23;;;;;;;8.30;7.33;;;;;;;;;;5028688;28;20566;-75
2023/05/18 05:42:04;;;;;;;6.23;5.73;;;;;;;;;;5029353;28;20479;-74
2023/05/18 05:47:26;;;;;;;12.77;7.00;;;;;;;;;;5027774;28;20455;-74
2023/05/18 05:50:11;;;;;;;6.70;5.73;;;;;;;;;;5028704;28;20460;-75
2023/05/18 05:55:35;;;;;;;8.83;6.03;;;;;;;;;;5026850;28;20559;-75
2023/05/18 05:58:04;;;;;;;7.60;6.20;;;;;;;;;;5027139;28;20443;-74
2023/05/18 06:00:38;;;;;;;16.60;6.67;;;;;;;;;;5025788;28;20514;-74
2023/05/18 06:03:17;;;;;;;9.77;6.80;;;;;;;;;;5026020;28;20447;-74
2023/05/18 06:05:50;;;;;;;7.27;5.83;;;;;;;;;;5030939;28;20447;-75
2023/05/18 06:08:25;;;;;;;13.90;6.57;;;;;;;;;;5031429;28;20534;-75
2023/05/18 06:10:56;;;;;;;8.20;6.10;;;;;;;;;;5033946;28;20493;-75
2023/05/18 06:13:31;;;;;;;10.33;6.50;;;;;;;;;;5036992;28;20455;-74
2023/05/18 06:16:11;;;;;;;10.97;6.63;;;;;;;;;;5037891;28;20447;-76
2023/05/18 06:18:44;;;;;;;8.00;6.20;;;;;;;;;;5037552;28;20471;-75
2023/05/18 06:21:24;;;;;;;7.30;6.27;;;;;;;;;;5036718;28;20476;-76
2023/05/18 06:23:57;;;;;;;7.87;5.83;;;;;;;;;;5038440;28;20466;-77
2023/05/18 06:26:26;;;;;;;14.00;7.03;;;;;;;;;;5038215;28;20456;-74
2023/05/18 06:28:54;;;;;;;8.47;6.20;;;;;;;;;;5038651;28;20490;-76
2023/05/18 06:31:22;;;;;;;6.60;5.70;;;;;;;;;;5039008;28;20511;-78
2023/05/18 06:33:55;;;;;;;8.30;5.50;;;;;;;;;;5039119;28;20519;-74
2023/05/18 06:36:24;;;;;;;8.63;6.30;;;;;;;;;;5036919;28;20486;-76
2023/05/18 06:38:55;;;;;;;12.30;6.30;;;;;;;;;;5032859;28;20447;-75
2023/05/18 06:41:24;;;;;;;8.23;5.87;;;;;;;;;;5021222;28;20475;-75
2023/05/18 06:44:00;;;;;;;8.00;6.17;;;;;;;;;;5019202;28;20471;-74
2023/05/18 06:46:29;;;;;;;10.40;5.80;;;;;;;;;;5018853;28;20458;-76
2023/05/18 06:49:00;;;;;;;8.37;5.60;;;;;;;;;;5018746;28;20455;-75
2023/05/18 06:51:34;;;;;;;8.10;6.10;;;;;;;;;;5018503;28;20467;-75
2023/05/18 06:54:14;;;;;;;8.70;5.70;;;;;;;;;;5017863;28;20432;-75
2023/05/18 06:56:53;;;;;;;8.07;5.60;;;;;;;;;;5020714;28;20451;-75
2023/05/18 06:59:26;;;;;;;5.90;5.07;;;;;;;;;;5018072;28;20490;-75
2023/05/18 07:02:00;;;;;;;7.30;5.40;;;;;;;;;;5017636;28;20479;-76
2023/05/18 07:04:45;;;;;;;12.20;5.03;;;;;;;;;;5017332;28;20462;-75
2023/05/18 07:07:15;;;;;;;8.23;6.20;;;;;;;;;;5016448;28;20447;-76
2023/05/18 07:09:44;;;;;;;7.20;5.20;;;;;;;;;;5022540;28;20448;-76
2023/05/18 07:12:35;;;;;;;7.50;6.67;;;;;;;;;;5019160;28;20550;-76
2023/05/18 07:15:10;;;;;;;11.63;5.37;;;;;;;;;;5018573;28;20451;-76
2023/05/18 07:17:54;;;;;;;9.47;5.30;;;;;;;;;;5018010;28;20483;-75
2023/05/18 07:20:27;;;;;;;6.53;5.30;;;;;;;;;;5001401;28;20502;-77
2023/05/18 07:23:01;;;;;;;9.77;5.23;;;;;;;;;;5018616;28;20502;-76
2023/05/18 07:25:30;;;;;;;10.07;5.47;;;;;;;;;;5018807;28;20455;-75
2023/05/18 07:28:01;;;;;;;8.20;5.47;;;;;;;;;;5018931;28;20455;-76
2023/05/18 07:30:34;;;;;;;8.53;4.87;;;;;;;;;;5017929;28;20518;-76
2023/05/18 07:33:09;;;;;;;10.37;6.10;;;;;;;;;;5020196;28;20487;-77
2023/05/18 07:35:48;;;;;;;7.30;5.40;;;;;;;;;;5018174;28;20462;-75
2023/05/18 07:38:19;;;;;;;5.97;5.37;;;;;;;;;;5019264;28;20534;-76
2023/05/18 07:40:59;;;;;;;8.90;4.80;;;;;;;;;;5018117;28;20483;-74
2023/05/18 07:43:35;;;;;;;9.93;5.40;;;;;;;;;;5017359;28;20482;-75
2023/05/18 07:46:15;;;;;;;;;;;;;;;;;;;;;
2023/05/18 07:48:47;;;;;;;11.33;6.00;;;;;;;;;;5018635;28;20435;-76
2023/05/18 07:51:32;;;;;;;11.27;6.07;;;;;;;;;;5017209;28;20490;-75
2023/05/18 07:54:03;;;;;;;7.83;5.47;;;;;;;;;;5017993;28;20482;-75
2023/05/18 07:56:34;;;;;;;5.70;5.10;;;;;;;;;;5017509;28;20514;-75
2023/05/18 07:59:02;;;;;;;5.70;5.10;;;;;;;;;;5017237;28;20472;-76
2023/05/18 08:01:31;;;;;;;6.43;5.20;;;;;;;;;;5018291;28;20479;-76
2023/05/18 08:04:10;;;;;;;5.70;4.60;;;;;;;;;;5018106;28;20458;-76
2023/05/18 08:06:58;;;;;;;8.17;5.60;;;;;;;;;;5020525;28;20442;-75
2023/05/18 08:09:52;;;;;;;;;;;;;;;;;;;;;
2023/05/18 08:12:24;;;;;;;8.63;5.30;;;;;;;;;;5028281;28;20443;-76
2023/05/18 08:14:54;;;;;;;10.70;5.70;;;;;;;;;;5023545;28;20983;-77
2023/05/18 08:17:32;;;;;;;6.10;5.20;;;;;;;;;;5030531;28;20451;-78
2023/05/18 08:23:01;;;;;;;7.63;5.13;;;;;;;;;;5025779;28;20480;-76
2023/05/18 08:25:39;;;;;;;5.90;5.13;;;;;;;;;;5028073;28;20459;-75
2023/05/18 08:28:09;;;;;;;7.70;5.40;;;;;;;;;;5028196;28;20510;-76
2023/05/18 08:30:37;;;;;;;7.40;5.30;;;;;;;;;;5028021;28;20491;-75
2023/05/18 08:33:06;;;;;;;9.73;8.63;;;;;;;;;;5025303;28;20450;-75
2023/05/18 08:35:42;;;;;;;6.77;4.67;;;;;;;;;;5032715;28;20490;-75
2023/05/18 08:41:01;;;;;;;7.10;5.13;;;;;;;;;;5012736;28;20466;-75
2023/05/18 08:43:34;;;;;;;6.40;4.50;;;;;;;;;;5032290;28;20435;-76
2023/05/18 08:46:09;;;;;;;10.93;4.67;;;;;;;;;;5029538;28;20432;-76
2023/05/18 08:48:40;;;;;;;7.10;5.03;;;;;;;;;;5032324;28;20477;-75
2023/05/18 08:51:11;;;;;;;6.80;5.00;;;;;;;;;;5029906;28;20981;-76
2023/05/18 08:53:41;;;;;;;4.80;4.40;;;;;;;;;;5030285;28;20451;-76
2023/05/18 08:56:14;;;;;;;5.10;3.97;;;;;;;;;;5034562;28;20455;-77
2023/05/18 08:58:49;;;;;;;6.30;4.27;;;;;;;;;;5032175;28;20431;-75
2023/05/18 09:01:17;;;;;;;11.17;4.80;;;;;;;;;;5029601;28;20519;-77
2023/05/18 09:03:45;;;;;;;6.80;4.93;;;;;;;;;;5026999;28;20478;-77
2023/05/18 09:06:15;;;;;;;7.03;3.93;;;;;;;;;;5030624;28;20435;-76
2023/05/18 09:08:43;;;;;;;4.93;4.37;;;;;;;;;;5032170;28;20494;-76
2023/05/18 09:11:13;;;;;;;7.80;4.13;;;;;;;;;;5028803;28;20431;-76
2023/05/18 09:13:41;;;;;;;4.90;4.50;;;;;;;;;;5029969;28;20420;-77
2023/05/18 09:16:11;;;;;;;6.50;4.07;;;;;;;;;;5034072;28;20447;-76
2023/05/18 09:18:40;;;;;;;6.73;4.60;;;;;;;;;;5032959;28;20447;-77
2023/05/18 09:21:08;;;;;;;7.90;4.73;;;;;;;;;;5034483;28;20470;-76
2023/05/18 09:23:36;;;;;;;11.10;4.20;;;;;;;;;;5035026;28;20869;-74
2023/05/18 09:26:05;;;;;;;6.77;3.97;;;;;;;;;;5034962;28;20465;-75
2023/05/18 09:28:34;;;;;;;6.87;4.80;;;;;;;;;;5036430;28;20442;-76
2023/05/18 09:31:02;;;;;;;6.80;5.00;;;;;;;;;;5036867;28;20458;-75
2023/05/18 09:33:37;;;;;;;8.70;4.60;;;;;;;;;;5037047;28;20415;-76
2023/05/18 09:36:05;;;;;;;7.60;5.70;;;;;;;;;;5039052;28;20481;-76
2023/05/18 09:38:37;;;;;;;7.93;5.47;;;;;;;;;;5038376;28;20553;-76
2023/05/18 09:41:05;;;;;;;6.57;4.37;;;;;;;;;;5037470;28;20434;-75
2023/05/18 09:43:37;;;;;;;7.40;4.73;;;;;;;;;;5038698;28;20490;-75
2023/05/18 09:46:12;;;;;;;7.20;5.10;;;;;;;;;;5036596;28;20447;-75
2023/05/18 09:48:58;;;;;;;;;;;;;;;;;;;;;
2023/05/18 09:51:30;;;;;;;5.13;4.10;;;;;;;;;;5021760;28;20454;-74
2023/05/18 09:54:03;;;;;;;6.70;4.50;;;;;;;;;;5019397;28;20428;-75
2023/05/18 09:56:33;;;;;;;6.37;4.27;;;;;;;;;;5021743;28;20447;-75
2023/05/18 09:59:15;;;;;;;6.70;4.83;;;;;;;;;;5018854;28;20479;-75
2023/05/18 10:01:59;;;;;;;7.43;4.40;;;;;;;;;;5017729;28;20460;-74
2023/05/18 10:10:46;;;;;;;6.17;4.00;;;;;;;;;;4903208;29;20469;-75
2023/05/18 10:13:23;;;;;;;9.00;4.70;;;;;;;;;;4935514;28;20454;-74
2023/05/18 10:18:43;;;;;;;6.40;4.07;;;;;;;;;;5007111;28;20419;-76
2023/05/18 10:21:13;;;;;;;7.57;4.37;;;;;;;;;;5024320;28;20447;-74
2023/05/18 10:23:49;;;;;;;5.77;4.20;;;;;;;;;;5021168;28;20562;-75
2023/05/18 10:26:21;;;;;;;5.73;3.43;;;;;;;;;;5028174;28;20407;-74
2023/05/18 10:29:00;;;;;;;5.07;4.20;;;;;;;;;;5022603;28;20897;-74
2023/05/18 10:31:37;;;;;;;4.43;4.00;;;;;;;;;;5024160;28;20478;-75
2023/05/18 10:34:10;;;;;;;7.43;3.97;;;;;;;;;;5019855;28;20896;-75
2023/05/18 10:36:44;;;;;;;8.63;4.47;;;;;;;;;;5022463;28;20454;-76
2023/05/18 10:39:15;;;;;;;10.53;4.33;;;;;;;;;;5020644;28;21014;-75
2023/05/18 10:41:45;;;;;;;6.03;4.10;;;;;;;;;;5019498;28;20475;-75
2023/05/18 10:44:17;;;;;;;5.87;4.07;;;;;;;;;;5019749;28;20456;-75
2023/05/18 10:46:46;;;;;;;5.10;3.43;;;;;;;;;;5015933;28;20967;-74
2023/05/18 10:49:26;;;;;;;6.07;4.43;;;;;;;;;;5016192;28;20486;-75
2023/05/18 10:52:04;;;;;;;5.97;3.20;;;;;;;;;;5015921;28;20870;-75
2023/05/18 10:54:32;;;;;;;3.70;3.10;;;;;;;;;;5015891;28;20455;-76
2023/05/18 10:57:02;;;;;;;6.13;3.77;;;;;;;;;;5015788;28;20991;-76
2023/05/18 10:59:30;;;;;;;6.13;4.33;;;;;;;;;;5015867;28;20829;-76
2023/05/18 11:02:17;;;;;;;10.10;4.10;;;;;;;;;;5016265;28;20947;-75
2023/05/18 11:04:47;;;;;;;5.17;3.63;;;;;;;;;;5016762;28;20531;-74
2023/05/18 11:07:21;;;;;;;4.43;3.30;;;;;;;;;;5016412;28;20478;-74
2023/05/18 11:09:50;;;;;;;5.67;3.53;;;;;;;;;;5018740;28;20490;-76
2023/05/18 11:12:20;;;;;;;8.13;4.27;;;;;;;;;;5017464;28;20447;-76
2023/05/18 11:14:54;;;;;;;7.50;3.80;;;;;;;;;;5017563;28;20447;-75
2023/05/18 11:17:22;;;;;;;5.80;3.40;;;;;;;;;;5018815;28;20467;-76
2023/05/18 11:20:06;;;;;;;5.80;3.77;;;;;;;;;;5024009;28;21012;-75
2023/05/18 11:22:42;;;;;;;5.47;3.13;;;;;;;;;;5022223;28;20570;-75
2023/05/18 11:25:14;;;;;;;5.60;4.10;;;;;;;;;;5019268;28;20514;-74
2023/05/18 11:27:44;;;;;;;6.20;3.67;;;;;;;;;;5020795;28;20436;-74
2023/05/18 11:30:28;;;;;;;6.07;3.80;;;;;;;;;;5019131;28;20494;-75
2023/05/18 11:33:11;;;;;;;4.90;3.40;;;;;;;;;;5028887;28;20457;-76
2023/05/18 11:35:54;;;;;;;3.40;3.10;;;;;;;;;;5028900;28;20483;-74
2023/05/18 11:41:12;;;;;;;5.17;3.50;;;;;;;;;;5028653;28;20443;-75
2023/05/18 11:43:43;;;;;;;6.47;3.37;;;;;;;;;;5032380;28;20498;-75
2023/05/18 11:46:24;;;;;;;5.63;2.87;;;;;;;;;;5032214;28;20458;-75
2023/05/18 11:48:52;;;;;;;4.10;3.10;;;;;;;;;;5031792;28;20451;-75
2023/05/18 11:51:23;;;;;;;4.23;3.30;;;;;;;;;;5031948;28;20451;-75
2023/05/18 11:53:52;;;;;;;6.63;3.40;;;;;;;;;;5031008;28;20543;-75
2023/05/18 11:56:20;;;;;;;6.87;3.77;;;;;;;;;;5032196;28;20435;-77
2023/05/18 11:59:12;;;;;;;7.07;3.70;;;;;;;;;;5031816;28;20516;-74
2023/05/18 12:01:42;;;;;;;5.80;3.97;;;;;;;;;;5030918;28;20471;-75
2023/05/18 12:04:11;;;;;;;7.60;3.40;;;;;;;;;;5032511;28;20491;-74
2023/05/18 12:06:39;;;;;;;4.43;2.90;;;;;;;;;;5034389;28;20424;-76
2023/05/18 12:09:09;;;;;;;6.13;3.30;;;;;;;;;;5035752;28;20447;-74
2023/05/18 12:11:41;;;;;;;4.73;3.30;;;;;;;;;;5034081;28;20455;-75
2023/05/18 12:14:10;;;;;;;4.93;2.77;;;;;;;;;;5033466;28;20432;-74
2023/05/18 12:16:43;;;;;;;5.47;3.57;;;;;;;;;;5032026;28;20460;-74
2023/05/18 12:19:11;;;;;;;6.30;3.70;;;;;;;;;;5032573;28;20464;-75
2023/05/18 12:21:44;;;;;;;5.30;3.43;;;;;;;;;;5032779;28;20440;-75
2023/05/18 12:24:12;;;;;;;5.10;3.30;;;;;;;;;;5030195;28;20459;-73
2023/05/18 12:26:41;;;;;;;5.30;3.23;;;;;;;;;;5030213;28;20512;-75
2023/05/18 12:29:13;;;;;;;3.50;3.17;;;;;;;;;;5029907;28;20499;-74
2023/05/18 12:31:41;;;;;;;4.90;2.53;;;;;;;;;;5030725;28;20456;-76
2023/05/18 12:34:13;;;;;;;7.27;3.10;;;;;;;;;;5027158;28;20503;-75
2023/05/18 12:36:52;;;;;;;5.23;2.70;;;;;;;;;;5030752;28;20428;-75
2023/05/18 12:39:23;;;;;;;4.50;2.93;;;;;;;;;;5033019;28;20436;-76
2023/05/18 12:41:51;;;;;;;4.70;3.33;;;;;;;;;;5033434;28;20432;-77
2023/05/18 12:44:23;;;;;;;4.43;2.80;;;;;;;;;;5031509;28;20455;-75
2023/05/18 12:46:54;;;;;;;5.63;3.40;;;;;;;;;;5033708;28;20495;-75
2023/05/18 12:49:26;;;;;;;5.30;3.00;;;;;;;;;;5030799;28;20498;-75
2023/05/18 12:51:56;;;;;;;5.77;3.13;;;;;;;;;;5032604;28;20427;-75
2023/05/18 12:54:28;;;;;;;6.20;3.10;;;;;;;;;;5035280;28;20428;-74
2023/05/18 12:56:59;;;;;;;4.83;3.17;;;;;;;;;;5032738;28;20444;-76
2023/05/18 12:59:31;;;;;;;7.50;3.10;;;;;;;;;;5021300;28;20476;-75
2023/05/18 13:02:01;;;;;;;5.80;3.63;;;;;;;;;;5020781;28;20473;-74
2023/05/18 13:04:38;;;;;;;7.73;3.20;;;;;;;;;;5015308;28;20491;-75
2023/05/18 13:07:06;;;;;;;5.90;3.30;;;;;;;;;;5014526;28;20446;-75
2023/05/18 13:09:34;;;;;;;6.20;2.93;;;;;;;;;;5013317;28;20561;-75
2023/05/18 13:12:04;;;;;;;5.23;3.27;;;;;;;;;;5013266;28;20538;-75
2023/05/18 13:14:42;;;;;;;5.50;3.03;;;;;;;;;;5012978;28;20435;-75
2023/05/18 13:17:22;;;;;;;4.87;3.10;;;;;;;;;;5013106;28;20467;-76
2023/05/18 13:20:00;;;;;;;5.47;3.77;;;;;;;;;;5012575;28;20832;-74
2023/05/18 13:22:29;;;;;;;4.27;2.60;;;;;;;;;;5010065;28;20871;-75
2023/05/18 13:25:18;;;;;;;4.27;2.97;;;;;;;;;;5012142;28;20459;-74
2023/05/18 13:30:35;;;;;;;4.90;3.30;;;;;;;;;;5016488;28;20525;-74
2023/05/18 13:33:07;;;;;;;7.30;3.73;;;;;;;;;;5014154;28;20513;-74
2023/05/18 13:35:36;;;;;;;5.67;2.80;;;;;;;;;;5013422;28;20463;-74
2023/05/18 13:38:04;;;;;;;5.70;2.97;;;;;;;;;;5013670;28;20424;-75
2023/05/18 13:40:35;;;;;;;5.73;4.20;;;;;;;;;;5014281;28;20957;-74
2023/05/18 13:43:06;;;;;;;5.03;3.07;;;;;;;;;;5015960;28;20490;-75
2023/05/18 13:45:37;;;;;;;6.77;2.93;;;;;;;;;;5016181;28;20458;-75
2023/05/18 13:48:06;;;;;;;5.00;2.93;;;;;;;;;;5016462;28;20461;-74
2023/05/18 13:50:36;;;;;;;5.27;3.13;;;;;;;;;;5015831;28;20494;-75
2023/05/18 13:53:18;;;;;;;3.17;2.87;;;;;;;;;;5016243;28;20534;-74
2023/05/18 13:56:06;;;;;;;5.77;2.73;;;;;;;;;;5017224;28;20910;-74
2023/05/18 13:58:38;;;;;;;5.70;3.00;;;;;;;;;;5023895;28;20446;-73
2023/05/18 14:01:12;;;;;;;6.33;3.30;;;;;;;;;;5018715;28;20495;-74
2023/05/18 14:03:40;;;;;;;4.13;2.60;;;;;;;;;;5016269;28;20562;-75
2023/05/18 14:06:09;;;;;;;6.73;3.03;;;;;;;;;;5016698;28;20515;-76
2023/05/18 14:08:45;;;;;;;5.07;2.90;;;;;;;;;;5017317;28;20448;-74
2023/05/18 14:11:13;;;;;;;3.57;2.70;;;;;;;;;;5016890;28;20439;-75
2023/05/18 14:13:41;;;;;;;5.67;2.97;;;;;;;;;;5017274;28;20448;-74
2023/05/18 14:16:09;;;;;;;9.07;3.10;;;;;;;;;;5021643;28;20452;-75
2023/05/18 14:18:39;;;;;;;4.83;2.83;;;;;;;;;;5025261;28;20455;-74
2023/05/18 14:21:07;;;;;;;9.97;3.40;;;;;;;;;;5027284;28;20455;-75
2023/05/18 14:23:35;;;;;;;6.20;2.93;;;;;;;;;;5028687;28;20476;-76
2023/05/18 14:26:03;;;;;;;7.67;3.10;;;;;;;;;;5025513;28;20454;-74
2023/05/18 14:28:31;;;;;;;4.40;2.60;;;;;;;;;;5023850;28;20531;-75
2023/05/18 14:30:59;;;;;;;4.17;2.90;;;;;;;;;;5025755;28;20479;-75
2023/05/18 14:33:27;;;;;;;5.03;2.80;;;;;;;;;;5029743;28;20439;-75
2023/05/18 14:35:57;;;;;;;5.03;3.03;;;;;;;;;;5028304;28;20486;-75
2023/05/18 14:38:25;;;;;;;3.67;2.43;;;;;;;;;;5028535;28;20478;-76
2023/05/18 14:40:54;;;;;;;4.70;3.10;;;;;;;;;;5028052;28;20557;-74
2023/05/18 14:43:22;;;;;;;6.00;2.80;;;;;;;;;;5028195;28;20474;-75
2023/05/18 14:45:50;;;;;;;3.10;2.27;;;;;;;;;;5026535;28;20493;-74
2023/05/18 14:48:18;;;;;;;3.43;2.53;;;;;;;;;;5026211;28;20463;-75
2023/05/18 14:50:45;;;;;;;4.37;2.73;;;;;;;;;;5029831;28;20490;-74
2023/05/18 14:53:15;;;;;;;5.00;3.00;;;;;;;;;;5028606;28;20440;-75
2023/05/18 14:55:43;;;;;;;4.90;2.90;;;;;;;;;;5024145;28;20471;-73
2023/05/18 14:58:13;;;;;;;5.43;2.83;;;;;;;;;;5021991;28;20687;-75
2023/05/18 15:00:41;;;;;;;5.40;3.00;;;;;;;;;;5024693;28;20531;-77
2023/05/18 15:03:09;;;;;;;3.90;2.97;;;;;;;;;;5022661;28;20450;-74
2023/05/18 15:05:38;;;;;;;4.83;2.73;;;;;;;;;;5020122;28;20538;-76
2023/05/18 15:08:06;;;;;;;3.23;2.40;;;;;;;;;;5018429;28;20455;-75
2023/05/18 15:10:36;;;;;;;5.17;2.97;;;;;;;;;;5018751;28;20495;-75
2023/05/18 15:13:05;;;;;;;4.57;3.10;;;;;;;;;;5021154;28;20431;-75
2023/05/18 15:15:44;;;;;;;4.87;2.80;;;;;;;;;;5022654;28;20601;-75
2023/05/18 15:18:12;;;;;;;4.03;2.80;;;;;;;;;;5022583;28;20554;-76
2023/05/18 15:20:42;;;;;;;7.60;2.80;;;;;;;;;;5023439;28;20533;-76
2023/05/18 15:23:11;;;;;;;4.47;2.60;;;;;;;;;;5024488;28;20527;-75
2023/05/18 15:25:42;;;;;;;3.47;2.83;;;;;;;;;;5022320;28;20459;-75
2023/05/18 15:28:12;;;;;;;3.53;2.73;;;;;;;;;;5025012;28;20491;-76
2023/05/18 15:30:40;;;;;;;3.27;2.43;;;;;;;;;;5023357;28;20541;-75
2023/05/18 15:33:09;;;;;;;5.97;3.40;;;;;;;;;;5022482;28;20456;-77
2023/05/18 15:35:37;;;;;;;6.03;2.83;;;;;;;;;;5020038;28;20550;-74
2023/05/18 15:38:05;;;;;;;4.13;2.53;;;;;;;;;;5022862;28;21006;-75
2023/05/18 15:40:34;;;;;;;6.83;3.07;;;;;;;;;;5024428;28;20531;-73
2023/05/18 15:43:03;;;;;;;4.00;2.90;;;;;;;;;;5024475;28;20446;-75
2023/05/18 15:45:31;;;;;;;4.30;3.00;;;;;;;;;;5021804;28;20996;-76
2023/05/18 15:48:00;;;;;;;5.80;3.47;;;;;;;;;;5021675;28;20443;-75
2023/05/18 15:50:28;;;;;;;4.23;2.90;;;;;;;;;;5019464;28;20486;-75
2023/05/18 15:52:56;;;;;;;5.50;3.23;;;;;;;;;;5020683;28;20451;-74
2023/05/18 15:55:24;;;;;;;7.70;2.73;;;;;;;;;;5019236;28;20568;-75
2023/05/18 15:57:53;;;;;;;6.43;2.97;;;;;;;;;;5019777;28;20448;-75
2023/05/18 16:00:26;;;;;;;5.40;3.87;;;;;;;;;;5019150;28;20549;-76
2023/05/18 16:02:58;;;;;;;6.50;3.00;;;;;;;;;;5017688;28;20451;-75
2023/05/18 16:05:28;;;;;;;3.77;2.90;;;;;;;;;;5016600;28;20560;-76
2023/05/18 16:07:59;;;;;;;4.57;3.13;;;;;;;;;;5018441;28;20558;-75
2023/05/18 16:10:31;;;;;;;7.67;4.00;;;;;;;;;;5016220;28;20506;-76
2023/05/18 16:13:04;;;;;;;7.00;3.00;;;;;;;;;;5015901;28;20516;-74
2023/05/18 16:15:37;;;;;;;4.60;3.13;;;;;;;;;;5016119;28;21020;-75
2023/05/18 16:18:06;;;;;;;4.10;3.00;;;;;;;;;;5018026;28;21269;-75
2023/05/18 16:20:34;;;;;;;3.63;3.33;;;;;;;;;;5016585;28;20976;-75
2023/05/18 16:23:06;;;;;;;4.83;3.20;;;;;;;;;;5016404;28;20760;-75
2023/05/18 16:28:28;;;;;;;6.13;3.20;;;;;;;;;;5015631;28;20443;-75
2023/05/18 16:30:59;;;;;;;6.10;3.50;;;;;;;;;;5020866;28;20494;-75
2023/05/18 16:33:28;;;;;;;8.40;3.47;;;;;;;;;;5020507;28;20628;-75
2023/05/18 16:35:59;;;;;;;7.90;3.10;;;;;;;;;;5020524;28;20459;-76
2023/05/18 16:38:34;;;;;;;4.77;3.27;;;;;;;;;;5019796;28;20531;-76
2023/05/18 16:41:03;;;;;;;5.40;3.00;;;;;;;;;;5024472;28;21000;-75
2023/05/18 16:43:32;;;;;;;7.97;3.90;;;;;;;;;;5024333;28;20451;-75
2023/05/18 16:46:12;;;;;;;3.97;3.40;;;;;;;;;;5022587;28;20474;-75
2023/05/18 16:48:42;;;;;;;5.60;2.97;;;;;;;;;;5024187;28;20562;-76
2023/05/18 16:51:10;;;;;;;8.50;3.87;;;;;;;;;;5024262;28;20475;-76
2023/05/18 16:53:38;;;;;;;4.97;3.03;;;;;;;;;;5020444;28;20459;-76
2023/05/18 16:56:07;;;;;;;6.50;3.30;;;;;;;;;;5020108;28;20530;-76
2023/05/18 16:58:36;;;;;;;10.67;3.40;;;;;;;;;;5018833;28;20450;-76
2023/05/18 17:01:08;;;;;;;5.23;3.33;;;;;;;;;;5016723;28;20561;-75
2023/05/18 17:03:39;;;;;;;4.90;2.87;;;;;;;;;;5016606;28;20482;-75
2023/05/18 17:06:15;;;;;;;6.23;3.67;;;;;;;;;;5017744;28;20451;-76
2023/05/18 17:08:51;;;;;;;5.87;3.50;;;;;;;;;;5017106;28;20455;-75
2023/05/18 17:11:22;;;;;;;4.27;3.03;;;;;;;;;;5016969;28;20475;-75
2023/05/18 17:13:56;;;;;;;8.13;3.20;;;;;;;;;;5017105;28;20502;-76
2023/05/18 17:16:31;;;;;;;5.33;2.80;;;;;;;;;;5018082;28;21016;-74